createdAt,value
2023-03-29T00:00:33.040Z,78.76
2023-03-29T00:03:02.778Z,78.85
2023-03-29T00:05:34.016Z,78.85
2023-03-29T00:08:04.366Z,78.13
2023-03-29T00:10:32.778Z,78.91
2023-03-29T00:13:00.787Z,78.95
2023-03-29T00:15:28.446Z,79.00
2023-03-29T00:17:56.285Z,79.25
2023-03-29T00:20:26.370Z,78.69
2023-03-29T00:22:54.059Z,79.23
2023-03-29T00:25:21.824Z,78.81
2023-03-29T00:27:49.744Z,78.84
2023-03-29T00:30:20.192Z,78.57
2023-03-29T00:32:47.972Z,78.99
2023-03-29T00:35:16.653Z,79.07
2023-03-29T00:37:47.308Z,79.25
2023-03-29T00:40:15.695Z,79.10
2023-03-29T00:42:46.769Z,78.91
2023-03-29T00:45:19.207Z,79.16
2023-03-29T00:47:51.470Z,79.61
2023-03-29T00:50:25.879Z,79.26
2023-03-29T00:53:00.184Z,79.46
2023-03-29T00:55:31.946Z,79.29
2023-03-29T00:58:01.103Z,79.13
2023-03-29T01:00:33.323Z,79.33
2023-03-29T01:03:09.112Z,78.97
2023-03-29T01:05:49.083Z,79.22
2023-03-29T01:08:25.827Z,78.97
2023-03-29T01:11:03.262Z,79.16
2023-03-29T01:13:39.478Z,79.25
2023-03-29T01:16:09.432Z,78.75
2023-03-29T01:18:37.514Z,78.93
2023-03-29T01:21:16.672Z,78.75
2023-03-29T01:23:54.284Z,78.86
2023-03-29T01:26:25.137Z,79.00
2023-03-29T01:29:02.011Z,79.07
2023-03-29T01:31:38.304Z,78.91
2023-03-29T01:34:15.365Z,78.82
2023-03-29T01:37:00.439Z,78.99
2023-03-29T01:39:28.221Z,79.15
2023-03-29T01:42:08.169Z,78.91
2023-03-29T01:44:47.930Z,79.00
2023-03-29T01:47:29.849Z,78.37
2023-03-29T01:50:05.607Z,78.32
2023-03-29T01:52:40.461Z,77.79
2023-03-29T01:55:24.389Z,77.72
2023-03-29T01:57:54.299Z,78.17
2023-03-29T02:00:25.031Z,77.95
2023-03-29T02:02:55.336Z,78.24
2023-03-29T02:05:23.578Z,78.09
2023-03-29T02:07:53.005Z,77.64
2023-03-29T02:10:22.092Z,77.99
2023-03-29T02:12:50.720Z,77.92
2023-03-29T02:15:20.239Z,77.79
2023-03-29T02:17:49.633Z,77.81
2023-03-29T02:20:24.998Z,77.72
2023-03-29T02:23:12.608Z,77.77
2023-03-29T02:25:41.162Z,77.61
2023-03-29T02:28:09.008Z,77.67
2023-03-29T02:30:44.654Z,77.98
2023-03-29T02:33:19.646Z,77.62
2023-03-29T02:36:04.620Z,77.26
2023-03-29T02:38:32.858Z,77.62
2023-03-29T02:41:01.253Z,77.60
2023-03-29T02:43:29.349Z,77.91
2023-03-29T02:45:57.290Z,77.34
2023-03-29T02:48:26.493Z,77.40
2023-03-29T02:50:57.025Z,77.55
2023-03-29T02:53:29.422Z,77.58
2023-03-29T02:55:57.966Z,77.68
2023-03-29T02:58:26.783Z,77.48
2023-03-29T03:00:55.944Z,76.96
2023-03-29T03:03:23.651Z,77.37
2023-03-29T03:06:01.772Z,77.83
2023-03-29T03:08:32.292Z,77.80
2023-03-29T03:11:00.252Z,77.52
2023-03-29T03:13:28.220Z,76.76
2023-03-29T03:16:00.248Z,76.42
2023-03-29T03:18:27.983Z,76.46
2023-03-29T03:20:57.405Z,76.52
2023-03-29T03:23:25.467Z,76.79
2023-03-29T03:25:53.810Z,76.88
2023-03-29T03:28:27.471Z,76.60
2023-03-29T03:30:56.222Z,76.53
2023-03-29T03:33:27.247Z,76.66
2023-03-29T03:36:06.567Z,76.31
2023-03-29T03:38:37.649Z,76.00
2023-03-29T03:41:07.293Z,76.55
2023-03-29T03:43:35.480Z,76.76
2023-03-29T03:46:03.547Z,76.16
2023-03-29T03:48:31.804Z,75.87
2023-03-29T03:51:06.612Z,75.87
2023-03-29T03:53:36.108Z,75.74
2023-03-29T03:56:14.001Z,75.89
2023-03-29T03:59:05.168Z,75.49
2023-03-29T04:01:55.045Z,76.12
2023-03-29T04:04:25.066Z,76.07
2023-03-29T04:07:08.245Z,76.34
2023-03-29T04:10:00.792Z,75.28
2023-03-29T04:12:34.055Z,74.96
2023-03-29T04:15:05.293Z,75.12
2023-03-29T04:17:33.844Z,74.53
2023-03-29T04:20:22.057Z,75.46
2023-03-29T04:22:50.154Z,74.55
2023-03-29T04:25:18.967Z,74.47
2023-03-29T04:27:50.613Z,74.35
2023-03-29T04:30:47.076Z,73.63
2023-03-29T04:33:31.661Z,74.16
2023-03-29T04:36:01.705Z,73.64
2023-03-29T04:38:32.248Z,74.60
2023-03-29T04:41:01.409Z,74.32
2023-03-29T04:44:04.755Z,73.97
2023-03-29T04:46:33.447Z,73.94
2023-03-29T04:49:19.327Z,73.95
2023-03-29T04:51:51.077Z,74.08
2023-03-29T04:54:22.222Z,73.74
2023-03-29T04:57:22.025Z,72.41
2023-03-29T05:00:00.040Z,73.23
2023-03-29T05:02:47.848Z,73.18
2023-03-29T05:05:16.290Z,73.15
2023-03-29T05:07:48.107Z,72.50
2023-03-29T05:10:20.114Z,73.17
2023-03-29T05:12:50.689Z,73.11
2023-03-29T05:15:18.667Z,71.27
2023-03-29T05:17:49.162Z,73.11
2023-03-29T05:20:17.836Z,72.63
2023-03-29T05:22:48.788Z,71.96
2023-03-29T05:25:36.406Z,71.08
2023-03-29T05:28:04.753Z,70.85
2023-03-29T05:30:32.566Z,72.33
2023-03-29T05:33:07.410Z,70.89
2023-03-29T05:35:36.193Z,70.38
2023-03-29T05:38:09.049Z,70.43
2023-03-29T05:40:37.299Z,69.10
2023-03-29T05:43:14.380Z,69.19
2023-03-29T05:45:42.287Z,68.41
2023-03-29T05:48:10.350Z,68.99
2023-03-29T05:50:45.780Z,68.70
2023-03-29T05:53:14.220Z,68.75
2023-03-29T05:55:42.605Z,69.09
2023-03-29T05:58:13.843Z,70.92
2023-03-29T06:00:43.937Z,70.05
2023-03-29T06:03:29.896Z,69.77
2023-03-29T06:06:03.938Z,68.97
2023-03-29T06:08:34.200Z,68.57
2023-03-29T06:11:18.506Z,70.03
2023-03-29T06:14:23.472Z,68.56
2023-03-29T06:16:57.326Z,68.97
2023-03-29T06:19:25.399Z,69.04
2023-03-29T06:21:54.787Z,67.96
2023-03-29T06:24:27.158Z,67.53
2023-03-29T06:27:02.040Z,68.54
2023-03-29T06:29:31.212Z,67.12
2023-03-29T06:31:59.113Z,66.37
2023-03-29T06:34:51.023Z,67.18
2023-03-29T06:37:30.298Z,67.70
2023-03-29T06:40:10.224Z,67.09
2023-03-29T06:42:44.788Z,67.47
2023-03-29T06:45:43.962Z,68.10
2023-03-29T06:48:22.900Z,68.45
2023-03-29T06:50:50.961Z,68.42
2023-03-29T06:53:19.539Z,69.21
2023-03-29T06:55:55.201Z,68.78
2023-03-29T06:58:41.480Z,69.19
2023-03-29T07:01:35.580Z,69.70
2023-03-29T07:04:17.712Z,70.04
2023-03-29T07:07:20.587Z,70.83
2023-03-29T07:09:55.755Z,71.50
2023-03-29T07:12:44.781Z,71.40
2023-03-29T07:15:13.779Z,71.20
2023-03-29T07:18:12.792Z,70.86
2023-03-29T07:20:41.838Z,71.85
2023-03-29T07:23:11.474Z,71.54
2023-03-29T07:25:41.096Z,71.62
2023-03-29T07:28:09.369Z,71.86
2023-03-29T07:30:39.505Z,71.48
2023-03-29T07:33:19.534Z,71.25
2023-03-29T07:35:52.059Z,70.79
2023-03-29T07:38:20.647Z,69.94
2023-03-29T07:41:04.347Z,69.25
2023-03-29T07:43:52.109Z,70.66
2023-03-29T07:46:25.221Z,68.73
2023-03-29T07:48:53.217Z,68.51
2023-03-29T07:51:21.624Z,69.77
2023-03-29T07:53:52.532Z,68.25
2023-03-29T07:56:46.261Z,68.72
2023-03-29T07:59:28.037Z,67.90
2023-03-29T08:02:05.538Z,68.48
2023-03-29T08:04:42.384Z,68.17
2023-03-29T08:07:21.307Z,69.15
2023-03-29T08:10:00.920Z,68.77
2023-03-29T08:12:42.568Z,68.63
2023-03-29T08:15:11.410Z,68.86
2023-03-29T08:17:40.042Z,68.30
2023-03-29T08:20:10.835Z,68.69
2023-03-29T08:22:40.774Z,68.50
2023-03-29T08:25:09.238Z,68.59
2023-03-29T08:27:44.873Z,69.04
2023-03-29T08:30:15.608Z,69.35
2023-03-29T08:32:43.507Z,69.18
2023-03-29T08:35:11.427Z,69.00
2023-03-29T08:38:05.506Z,69.42
2023-03-29T08:40:34.802Z,69.44
2023-03-29T08:43:24.034Z,70.93
2023-03-29T08:46:21.344Z,71.33
2023-03-29T08:48:54.618Z,71.27
2023-03-29T08:51:31.012Z,71.48
2023-03-29T08:54:05.849Z,70.92
2023-03-29T08:56:47.572Z,71.55
2023-03-29T08:59:35.535Z,72.42
2023-03-29T09:02:15.589Z,72.40
2023-03-29T09:04:43.857Z,72.20
2023-03-29T09:07:26.662Z,72.46
2023-03-29T09:09:56.009Z,73.18
2023-03-29T09:13:11.904Z,72.13
2023-03-29T09:15:55.131Z,73.45
2023-03-29T09:18:49.114Z,73.47
2023-03-29T09:21:25.332Z,74.24
2023-03-29T09:24:03.964Z,75.00
2023-03-29T09:26:59.889Z,76.18
2023-03-29T09:29:32.089Z,75.92
2023-03-29T09:32:03.688Z,77.33
2023-03-29T09:34:44.677Z,78.12
2023-03-29T09:37:46.901Z,77.61
2023-03-29T09:40:40.478Z,77.62
2023-03-29T09:43:38.633Z,77.32
2023-03-29T09:46:17.902Z,77.83
2023-03-29T09:48:46.637Z,78.43
2023-03-29T09:51:14.762Z,78.37
2023-03-29T09:53:42.698Z,78.74
2023-03-29T09:56:33.482Z,78.36
2023-03-29T09:59:13.575Z,78.66
2023-03-29T10:01:45.685Z,78.71
2023-03-29T10:04:15.229Z,78.39
2023-03-29T10:06:52.743Z,79.62
2023-03-29T10:09:22.276Z,79.64
2023-03-29T10:11:56.791Z,79.91
2023-03-29T10:14:37.194Z,78.87
2023-03-29T10:17:15.664Z,79.71
2023-03-29T10:19:51.779Z,79.00
2023-03-29T10:22:25.619Z,79.33
2023-03-29T10:24:55.089Z,79.29
2023-03-29T10:27:27.819Z,79.64
2023-03-29T10:29:56.928Z,79.40
2023-03-29T10:32:34.375Z,79.33
2023-03-29T10:35:26.713Z,79.18
2023-03-29T10:37:57.693Z,79.64
2023-03-29T10:40:41.875Z,79.47
2023-03-29T10:43:34.325Z,79.83
2023-03-29T10:46:29.506Z,79.51
2023-03-29T10:48:58.011Z,80.08
2023-03-29T10:51:30.155Z,80.60
2023-03-29T10:53:59.327Z,80.47
2023-03-29T10:56:39.321Z,80.74
2023-03-29T10:59:07.472Z,79.95
2023-03-29T11:01:39.668Z,81.02
2023-03-29T11:04:26.480Z,81.58
2023-03-29T11:07:30.791Z,82.17
2023-03-29T11:10:24.826Z,81.50
2023-03-29T11:13:08.577Z,82.04
2023-03-29T11:15:36.615Z,82.81
2023-03-29T11:18:30.621Z,82.60
2023-03-29T11:21:01.656Z,82.25
2023-03-29T11:23:32.520Z,83.21
2023-03-29T11:26:27.402Z,83.47
2023-03-29T11:29:18.134Z,83.66
2023-03-29T11:32:14.519Z,84.30
2023-03-29T11:34:51.282Z,83.35
2023-03-29T11:37:50.029Z,83.98
2023-03-29T11:40:45.647Z,84.09
2023-03-29T11:43:26.107Z,84.22
2023-03-29T11:45:57.975Z,84.50
2023-03-29T11:48:30.045Z,83.65
2023-03-29T11:51:11.311Z,84.00
2023-03-29T11:53:51.819Z,83.57
2023-03-29T11:57:18.152Z,82.99
2023-03-29T12:00:06.113Z,83.23
2023-03-29T12:02:46.830Z,83.60
2023-03-29T12:05:21.583Z,83.37
2023-03-29T12:08:07.486Z,83.61
2023-03-29T12:10:42.560Z,82.96
2023-03-29T12:13:48.988Z,84.02
2023-03-29T12:16:23.312Z,83.30
2023-03-29T12:18:55.168Z,83.21
2023-03-29T12:21:26.409Z,83.07
2023-03-29T12:24:05.152Z,83.30
2023-03-29T12:26:49.694Z,83.16
2023-03-29T12:30:13.729Z,84.19
2023-03-29T12:32:51.424Z,83.43
2023-03-29T12:35:59.424Z,84.61
2023-03-29T12:38:48.237Z,84.32
2023-03-29T12:41:37.302Z,84.54
2023-03-29T12:44:24.883Z,84.67
2023-03-29T12:47:21.896Z,83.39
2023-03-29T12:49:56.929Z,83.51
2023-03-29T12:52:28.462Z,83.32
2023-03-29T12:55:01.576Z,83.92
2023-03-29T12:57:53.254Z,83.71
2023-03-29T13:00:45.385Z,83.03
2023-03-29T13:03:42.904Z,83.12
2023-03-29T13:06:12.736Z,83.18
2023-03-29T13:08:43.529Z,82.94
2023-03-29T13:11:28.548Z,83.80
2023-03-29T13:14:04.900Z,83.25
2023-03-29T13:16:38.844Z,83.70
2023-03-29T13:19:39.203Z,83.46
2023-03-29T13:22:37.242Z,84.36
2023-03-29T13:25:40.984Z,84.48
2023-03-29T13:28:45.509Z,84.62
2023-03-29T13:31:40.573Z,84.32
2023-03-29T13:34:32.547Z,84.35
2023-03-29T13:37:19.405Z,84.74
2023-03-29T13:39:53.091Z,84.44
2023-03-29T13:42:41.929Z,84.39
2023-03-29T13:45:23.166Z,84.50
2023-03-29T13:48:05.456Z,84.10
2023-03-29T13:50:41.040Z,84.53
2023-03-29T13:53:44.926Z,83.35
2023-03-29T13:56:17.256Z,83.73
2023-03-29T13:58:55.550Z,83.70
2023-03-29T14:01:36.603Z,83.60
2023-03-29T14:04:10.805Z,83.81
2023-03-29T14:06:42.553Z,83.79
2023-03-29T14:09:14.529Z,84.09
2023-03-29T14:11:45.851Z,83.31
2023-03-29T14:14:14.976Z,84.45
2023-03-29T14:16:44.636Z,84.48
2023-03-29T14:19:19.775Z,84.39
2023-03-29T14:21:50.350Z,84.33
2023-03-29T14:24:22.305Z,84.18
2023-03-29T14:26:50.439Z,84.29
2023-03-29T14:29:18.369Z,84.52
2023-03-29T14:31:46.967Z,83.85
2023-03-29T14:34:16.810Z,84.13
2023-03-29T14:36:46.412Z,84.50
2023-03-29T14:39:23.741Z,84.22
2023-03-29T14:41:57.079Z,84.82
2023-03-29T14:44:31.091Z,84.14
2023-03-29T14:47:01.946Z,84.67
2023-03-29T14:49:30.129Z,85.02
2023-03-29T14:51:58.238Z,85.19
2023-03-29T14:54:32.013Z,85.24
2023-03-29T14:57:00.237Z,84.73
2023-03-29T14:59:42.869Z,85.86
2023-03-29T15:02:31.620Z,85.57
2023-03-29T15:05:06.945Z,84.93
2023-03-29T15:07:36.631Z,85.75
2023-03-29T15:10:06.584Z,85.15
2023-03-29T15:12:34.755Z,85.23
2023-03-29T15:15:03.941Z,85.13
2023-03-29T15:17:49.475Z,84.85
2023-03-29T15:20:41.712Z,85.00
2023-03-29T15:23:21.672Z,85.01
2023-03-29T15:26:19.537Z,85.28
2023-03-29T15:29:13.176Z,85.79
2023-03-29T15:31:41.913Z,85.61
2023-03-29T15:34:25.175Z,85.19
2023-03-29T15:36:54.164Z,84.91
2023-03-29T15:39:22.146Z,85.54
2023-03-29T15:41:53.883Z,86.21
2023-03-29T15:44:26.791Z,85.59
2023-03-29T15:46:55.679Z,86.06
2023-03-29T15:49:23.862Z,85.71
2023-03-29T15:51:54.138Z,85.84
2023-03-29T15:54:22.446Z,86.08
2023-03-29T15:56:55.913Z,85.66
2023-03-29T15:59:23.785Z,86.08
2023-03-29T16:01:51.878Z,85.42
2023-03-29T16:04:21.261Z,85.37
2023-03-29T16:06:50.708Z,85.22
2023-03-29T16:09:20.304Z,85.40
2023-03-29T16:11:49.546Z,85.56
2023-03-29T16:14:21.260Z,85.13
2023-03-29T16:16:52.568Z,85.01
2023-03-29T16:19:20.576Z,85.25
2023-03-29T16:21:48.705Z,85.75
2023-03-29T16:24:19.798Z,85.86
2023-03-29T16:26:48.256Z,85.39
2023-03-29T16:29:18.572Z,85.65
2023-03-29T16:31:47.702Z,85.11
2023-03-29T16:34:19.349Z,85.72
2023-03-29T16:36:47.924Z,85.85
2023-03-29T16:39:16.131Z,85.44
2023-03-29T16:41:45.279Z,85.13
2023-03-29T16:44:15.947Z,85.65
2023-03-29T16:46:44.120Z,85.75
2023-03-29T16:49:18.261Z,85.18
2023-03-29T16:51:47.261Z,85.49
2023-03-29T16:54:15.673Z,85.25
2023-03-29T16:56:43.845Z,85.25
2023-03-29T16:59:12.366Z,85.32
2023-03-29T17:01:40.926Z,85.34
2023-03-29T17:04:09.188Z,85.76
2023-03-29T17:06:37.091Z,85.53
2023-03-29T17:09:05.277Z,85.07
2023-03-29T17:11:33.651Z,84.72
2023-03-29T17:14:04.963Z,85.24
2023-03-29T17:16:32.899Z,84.71
2023-03-29T17:19:01.074Z,85.33
2023-03-29T17:21:29.670Z,85.14
2023-03-29T17:23:57.504Z,85.26
2023-03-29T17:26:26.161Z,85.20
2023-03-29T17:28:54.011Z,85.38
2023-03-29T17:31:21.845Z,85.42
2023-03-29T17:33:52.203Z,84.90
2023-03-29T17:36:24.318Z,85.34
2023-03-29T17:38:54.401Z,85.78
2023-03-29T17:41:23.060Z,85.41
2023-03-29T17:43:51.162Z,84.98
2023-03-29T17:46:22.964Z,84.60
2023-03-29T17:48:51.293Z,85.78
2023-03-29T17:51:19.929Z,85.30
2023-03-29T17:53:47.704Z,85.59
2023-03-29T17:56:17.625Z,85.48
2023-03-29T17:58:45.533Z,85.49
2023-03-29T18:01:14.532Z,85.29
2023-03-29T18:03:42.812Z,86.08
2023-03-29T18:06:11.605Z,85.59
2023-03-29T18:08:41.844Z,85.84
2023-03-29T18:11:16.238Z,85.65
2023-03-29T18:13:45.020Z,86.03
2023-03-29T18:16:12.986Z,85.82
2023-03-29T18:18:41.599Z,85.25
2023-03-29T18:21:12.655Z,85.77
2023-03-29T18:23:45.300Z,85.33
2023-03-29T18:26:14.795Z,85.73
2023-03-29T18:28:46.750Z,86.24
2023-03-29T18:31:15.512Z,86.07
2023-03-29T18:33:43.495Z,85.53
2023-03-29T18:36:13.170Z,85.93
2023-03-29T18:38:43.291Z,85.97
2023-03-29T18:41:13.060Z,85.21
2023-03-29T18:43:41.886Z,86.34
2023-03-29T18:46:09.679Z,85.78
2023-03-29T18:48:41.109Z,85.83
2023-03-29T18:51:11.616Z,85.68
2023-03-29T18:53:41.702Z,86.25
2023-03-29T18:56:09.777Z,86.27
2023-03-29T18:58:39.995Z,86.40
2023-03-29T19:01:08.069Z,86.45
2023-03-29T19:03:36.549Z,86.97
2023-03-29T19:06:04.923Z,86.51
2023-03-29T19:08:37.357Z,86.87
2023-03-29T19:11:07.508Z,87.14
2023-03-29T19:13:37.519Z,86.33
2023-03-29T19:16:06.122Z,87.18
2023-03-29T19:18:34.238Z,86.86
2023-03-29T19:21:37.760Z,87.38
2023-03-29T19:24:07.863Z,87.12
2023-03-29T19:26:35.759Z,86.98
2023-03-29T19:29:03.609Z,87.83
2023-03-29T19:31:33.532Z,87.59
2023-03-29T19:34:01.523Z,87.14
2023-03-29T19:36:29.296Z,87.67
2023-03-29T19:38:57.159Z,87.32
2023-03-29T19:41:24.982Z,87.26
2023-03-29T19:43:52.722Z,87.74
2023-03-29T19:46:20.615Z,87.40
2023-03-29T19:48:48.534Z,87.88
2023-03-29T19:51:16.805Z,87.06
2023-03-29T19:53:44.608Z,88.09
2023-03-29T19:56:14.613Z,87.73
2023-03-29T19:59:11.329Z,87.39
2023-03-29T20:01:42.721Z,87.89
2023-03-29T20:04:11.923Z,88.05
2023-03-29T20:06:39.739Z,88.15
2023-03-29T20:09:07.734Z,87.99
2023-03-29T20:11:35.713Z,88.11
2023-03-29T20:14:03.953Z,88.29
2023-03-29T20:16:34.492Z,88.23
2023-03-29T20:19:02.878Z,88.38
2023-03-29T20:21:33.682Z,88.35
2023-03-29T20:24:01.451Z,88.41
2023-03-29T20:26:29.182Z,88.49
2023-03-29T20:28:57.085Z,88.21
2023-03-29T20:31:24.948Z,88.19
2023-03-29T20:33:57.483Z,88.35
2023-03-29T20:36:26.775Z,88.41
2023-03-29T20:38:56.365Z,87.98
2023-03-29T20:41:24.386Z,88.53
2023-03-29T20:43:58.312Z,88.70
2023-03-29T20:46:35.870Z,88.73
2023-03-29T20:49:08.505Z,88.77
2023-03-29T20:51:40.452Z,87.93
2023-03-29T20:54:10.143Z,88.21
2023-03-29T20:56:40.087Z,88.89
2023-03-29T20:59:10.863Z,88.73
2023-03-29T21:01:42.491Z,88.92
2023-03-29T21:04:11.117Z,89.07
2023-03-29T21:06:42.162Z,89.03
2023-03-29T21:09:09.900Z,88.82
2023-03-29T21:11:37.779Z,88.55
2023-03-29T21:14:05.517Z,89.09
2023-03-29T21:16:33.500Z,88.81
2023-03-29T21:19:01.609Z,88.60
2023-03-29T21:21:30.298Z,88.75
2023-03-29T21:23:58.110Z,88.58
2023-03-29T21:26:26.189Z,88.49
2023-03-29T21:28:53.956Z,89.30
2023-03-29T21:31:21.743Z,88.45
2023-03-29T21:33:49.448Z,88.83
2023-03-29T21:36:17.204Z,88.59
2023-03-29T21:38:44.976Z,89.01
2023-03-29T21:41:13.834Z,89.45
2023-03-29T21:43:41.802Z,89.35
2023-03-29T21:46:09.961Z,88.89
2023-03-29T21:48:37.778Z,89.28
2023-03-29T21:51:06.452Z,89.32
2023-03-29T21:53:34.696Z,89.39
2023-03-29T21:56:02.947Z,89.10
2023-03-29T21:58:31.698Z,89.38
2023-03-29T22:00:59.885Z,89.39
2023-03-29T22:03:28.366Z,89.19
2023-03-29T22:05:57.828Z,89.16
2023-03-29T22:08:26.505Z,89.68
2023-03-29T22:10:55.677Z,88.90
2023-03-29T22:13:24.615Z,88.83
2023-03-29T22:15:59.414Z,89.33
2023-03-29T22:18:30.290Z,89.51
2023-03-29T22:20:58.248Z,89.50
2023-03-29T22:23:26.002Z,89.21
2023-03-29T22:25:53.755Z,88.91
2023-03-29T22:28:21.596Z,89.35
2023-03-29T22:30:49.277Z,88.96
2023-03-29T22:33:16.984Z,89.22
2023-03-29T22:35:47.493Z,89.43
2023-03-29T22:38:15.239Z,88.84
2023-03-29T22:40:42.975Z,88.68
2023-03-29T22:43:11.133Z,89.30
2023-03-29T22:45:39.036Z,89.16
2023-03-29T22:48:06.970Z,88.63
2023-03-29T22:50:34.808Z,88.71
2023-03-29T22:53:02.559Z,88.29
2023-03-29T22:55:30.652Z,89.04
2023-03-29T22:57:58.346Z,88.83
2023-03-29T23:00:26.629Z,88.74
2023-03-29T23:02:54.497Z,88.65
2023-03-29T23:05:22.222Z,89.10
2023-03-29T23:07:49.897Z,88.43
2023-03-29T23:10:17.720Z,88.62
2023-03-29T23:12:45.458Z,88.95
2023-03-29T23:15:13.229Z,88.93
2023-03-29T23:17:41.044Z,88.93
2023-03-29T23:20:11.336Z,89.05
2023-03-29T23:22:39.840Z,88.87
2023-03-29T23:25:08.051Z,88.43
2023-03-29T23:27:35.854Z,89.02
2023-03-29T23:30:04.054Z,88.61
2023-03-29T23:32:32.600Z,88.75
2023-03-29T23:35:00.434Z,89.25
2023-03-29T23:37:28.151Z,89.09
2023-03-29T23:39:56.104Z,89.02
2023-03-29T23:42:23.843Z,88.94
2023-03-29T23:44:51.574Z,88.50
2023-03-29T23:47:38.005Z,88.16
2023-03-29T23:50:09.608Z,88.91
2023-03-29T23:52:37.940Z,88.66
2023-03-29T23:55:06.059Z,88.80
2023-03-29T23:57:35.180Z,88.63
